createdAt,value
2018-12-05T05:00:34.080Z,15.00
2018-12-05T05:03:02.198Z,13.43
2018-12-05T05:05:30.351Z,13.00
2018-12-05T05:07:58.434Z,14.23
2018-12-05T05:10:26.540Z,19.47
2018-12-05T05:12:54.693Z,13.40
2018-12-05T05:15:22.721Z,20.43
2018-12-05T05:17:50.792Z,19.87
2018-12-05T05:20:18.873Z,18.20
2018-12-05T05:22:47.049Z,28.13
2018-12-05T05:25:15.101Z,14.97
2018-12-05T05:27:45.998Z,15.93
2018-12-05T05:30:13.538Z,26.80
2018-12-05T05:32:41.681Z,18.10
2018-12-05T05:35:09.953Z,11.30
2018-12-05T05:37:38.080Z,16.03
2018-12-05T05:40:06.264Z,16.13
2018-12-05T05:42:34.431Z,14.70
2018-12-05T05:45:02.545Z,16.93
2018-12-05T05:47:30.622Z,18.13
2018-12-05T05:49:58.789Z,23.10
2018-12-05T05:52:26.985Z,13.20
2018-12-05T05:54:55.108Z,11.40
2018-12-05T05:57:23.244Z,18.20
2018-12-05T05:59:51.312Z,9.23
2018-12-05T06:02:20.321Z,9.67
2018-12-05T06:04:48.664Z,12.60
2018-12-05T06:07:16.761Z,17.43
2018-12-05T06:09:44.889Z,13.37
2018-12-05T06:12:13.166Z,10.80
2018-12-05T06:14:42.541Z,11.27
2018-12-05T06:17:10.653Z,9.93
2018-12-05T06:19:38.720Z,13.73
2018-12-05T06:22:06.795Z,12.87
2018-12-05T06:24:34.869Z,15.63
2018-12-05T06:27:03.057Z,20.33
2018-12-05T06:29:31.177Z,18.03
2018-12-05T06:31:59.321Z,15.10
2018-12-05T06:34:27.381Z,15.43
2018-12-05T06:36:55.506Z,11.07
2018-12-05T06:39:23.573Z,15.73
2018-12-05T06:41:51.708Z,11.70
2018-12-05T06:44:19.784Z,19.23
2018-12-05T06:46:47.908Z,7.90
2018-12-05T06:49:15.991Z,17.23
2018-12-05T06:51:44.057Z,12.50
2018-12-05T06:54:12.272Z,21.83
2018-12-05T06:56:40.433Z,13.43
2018-12-05T06:59:08.620Z,11.53
2018-12-05T07:01:36.748Z,12.30
2018-12-05T07:04:04.884Z,14.90
2018-12-05T07:06:33.021Z,10.77
2018-12-05T07:09:01.219Z,10.77
2018-12-05T07:11:29.456Z,9.67
2018-12-05T07:13:57.597Z,11.13
2018-12-05T07:16:29.451Z,12.00
2018-12-05T07:18:57.599Z,15.50
2018-12-05T07:21:25.662Z,8.33
2018-12-05T07:23:53.802Z,10.33
2018-12-05T07:26:21.857Z,11.73
2018-12-05T07:28:50.161Z,13.70
2018-12-05T07:31:18.248Z,8.30
2018-12-05T07:33:46.425Z,7.43
2018-12-05T07:36:14.562Z,9.30
2018-12-05T07:38:42.721Z,12.23
2018-12-05T07:41:10.853Z,9.23
2018-12-05T07:43:39.072Z,12.03
2018-12-05T07:46:07.264Z,11.30
2018-12-05T07:48:35.499Z,6.73
2018-12-05T07:51:03.829Z,4.97
2018-12-05T07:53:31.896Z,8.20
2018-12-05T07:56:00.035Z,4.70
2018-12-05T07:58:28.170Z,9.00
2018-12-05T08:00:56.340Z,8.53
2018-12-05T08:03:24.492Z,11.37
2018-12-05T08:05:52.666Z,10.43
2018-12-05T08:08:20.818Z,5.03
2018-12-05T08:10:48.928Z,7.47
2018-12-05T08:13:17.078Z,9.07
2018-12-05T08:15:45.307Z,6.53
2018-12-05T08:18:13.451Z,2.93
2018-12-05T08:20:41.626Z,12.60
2018-12-05T08:23:09.836Z,8.27
2018-12-05T08:25:37.920Z,4.17
2018-12-05T08:28:06.177Z,5.30
2018-12-05T08:30:34.239Z,13.07
2018-12-05T08:33:02.324Z,10.37
2018-12-05T08:35:30.553Z,5.80
2018-12-05T08:37:58.608Z,4.10
2018-12-05T08:40:26.763Z,19.97
2018-12-05T08:42:54.833Z,4.17
2018-12-05T08:45:22.904Z,6.97
2018-12-05T08:47:51.057Z,7.70
2018-12-05T08:50:19.144Z,9.13
2018-12-05T08:52:47.352Z,6.20
2018-12-05T08:55:15.503Z,8.03
2018-12-05T08:57:43.695Z,6.10
2018-12-05T09:00:11.996Z,5.23
2018-12-05T09:02:40.079Z,7.33
2018-12-05T09:05:08.306Z,9.63
2018-12-05T09:07:40.265Z,4.37
2018-12-05T09:10:08.456Z,4.03
2018-12-05T09:12:36.682Z,9.50
2018-12-05T09:15:05.310Z,2.20
2018-12-05T09:17:34.504Z,4.07
2018-12-05T09:20:02.672Z,5.33
2018-12-05T09:22:30.765Z,8.97
2018-12-05T09:24:58.921Z,4.70
2018-12-05T09:27:27.138Z,4.60
2018-12-05T09:29:55.305Z,3.63
2018-12-05T09:32:23.464Z,6.03
2018-12-05T09:34:51.604Z,3.40
2018-12-05T09:37:19.758Z,9.47
2018-12-05T09:39:48.185Z,10.10
2018-12-05T09:42:16.268Z,5.90
2018-12-05T09:44:44.447Z,4.03
2018-12-05T09:47:15.877Z,13.13
2018-12-05T09:49:42.714Z,5.30
2018-12-05T09:52:10.860Z,8.07
2018-12-05T09:54:38.967Z,5.67
2018-12-05T09:57:07.188Z,7.40
2018-12-05T09:59:35.415Z,3.20
2018-12-05T10:02:03.624Z,7.13
2018-12-05T10:04:33.676Z,4.60
2018-12-05T10:07:01.752Z,7.50
2018-12-05T10:09:30.954Z,5.53
2018-12-05T10:11:59.081Z,6.97
2018-12-05T10:14:27.228Z,11.87
2018-12-05T10:16:55.588Z,3.10
2018-12-05T10:19:23.744Z,10.47
2018-12-05T10:21:51.968Z,10.20
2018-12-05T10:24:20.094Z,3.63
2018-12-05T10:26:48.306Z,7.73
2018-12-05T10:29:16.371Z,4.17
2018-12-05T10:31:45.397Z,6.50
2018-12-05T10:34:13.615Z,6.43
2018-12-05T10:36:41.687Z,9.83
2018-12-05T10:39:09.863Z,6.53
2018-12-05T10:41:38.028Z,7.70
2018-12-05T10:44:06.204Z,5.43
2018-12-05T10:46:34.256Z,3.23
2018-12-05T10:49:02.493Z,6.37
2018-12-05T10:51:30.641Z,6.13
2018-12-05T10:53:58.719Z,9.17
2018-12-05T10:56:26.808Z,4.43
2018-12-05T10:58:55.001Z,2.60
2018-12-05T11:01:28.720Z,7.03
2018-12-05T11:03:56.945Z,3.30
2018-12-05T11:06:30.648Z,10.33
2018-12-05T11:09:04.348Z,3.23
2018-12-05T11:11:37.823Z,7.83
2018-12-05T11:14:11.513Z,7.00
2018-12-05T11:16:46.632Z,6.23
2018-12-05T11:19:20.227Z,5.70
2018-12-05T11:21:53.835Z,6.40
2018-12-05T11:24:27.580Z,7.73
2018-12-05T11:26:55.724Z,5.93
2018-12-05T11:29:23.781Z,8.40
2018-12-05T11:31:51.932Z,2.83
2018-12-05T11:34:20.093Z,8.07
2018-12-05T11:36:48.206Z,7.53
2018-12-05T11:39:16.490Z,4.23
2018-12-05T11:41:44.845Z,6.80
2018-12-05T11:44:13.080Z,5.60
2018-12-05T11:46:41.316Z,8.37
2018-12-05T11:49:09.616Z,3.13
2018-12-05T11:51:37.748Z,3.47
2018-12-05T11:54:05.951Z,7.47
2018-12-05T11:56:34.207Z,4.90
2018-12-05T11:59:02.547Z,7.07
2018-12-05T12:01:30.885Z,3.93
2018-12-05T12:03:59.089Z,8.03
2018-12-05T12:06:27.163Z,9.47
2018-12-05T12:08:55.365Z,5.80
2018-12-05T12:11:23.669Z,6.40
2018-12-05T12:13:52.019Z,4.30
2018-12-05T12:16:20.279Z,7.93
2018-12-05T12:18:48.493Z,14.60
2018-12-05T12:21:16.575Z,5.37
2018-12-05T12:23:44.655Z,4.27
2018-12-05T12:26:13.359Z,4.00
2018-12-05T12:28:41.515Z,9.57
2018-12-05T12:31:09.644Z,9.27
2018-12-05T12:33:37.825Z,6.10
2018-12-05T12:36:05.953Z,5.00
2018-12-05T12:38:34.103Z,5.07
2018-12-05T12:41:02.300Z,3.50
2018-12-05T12:43:30.457Z,9.90
2018-12-05T12:45:58.636Z,9.90
2018-12-05T12:48:26.720Z,8.23
2018-12-05T12:50:54.987Z,5.57
2018-12-05T12:53:23.047Z,9.87
2018-12-05T12:55:51.154Z,7.57
2018-12-05T12:58:19.296Z,3.37
2018-12-05T13:00:47.470Z,8.53
2018-12-05T13:03:15.543Z,9.50
2018-12-05T13:05:43.683Z,5.63
2018-12-05T13:08:11.828Z,7.83
2018-12-05T13:10:39.977Z,6.70
2018-12-05T13:13:10.492Z,5.70
2018-12-05T13:15:38.593Z,4.60
2018-12-05T13:18:06.849Z,3.30
2018-12-05T13:20:35.061Z,5.10
2018-12-05T13:23:03.133Z,8.10
2018-12-05T13:25:31.269Z,9.53
2018-12-05T13:27:59.513Z,9.60
2018-12-05T13:30:27.797Z,5.27
2018-12-05T13:32:56.005Z,8.53
2018-12-05T13:35:24.149Z,6.03
2018-12-05T13:37:52.280Z,2.93
2018-12-05T13:40:20.431Z,13.97
2018-12-05T13:42:48.576Z,6.80
2018-12-05T13:45:16.734Z,5.17
2018-12-05T13:47:44.898Z,3.27
2018-12-05T13:50:13.080Z,11.17
2018-12-05T13:52:41.305Z,7.10
2018-12-05T13:55:09.550Z,3.07
2018-12-05T13:57:37.754Z,7.57
2018-12-05T14:00:07.359Z,4.27
2018-12-05T14:02:35.601Z,2.13
2018-12-05T14:05:04.160Z,7.97
2018-12-05T14:07:32.341Z,4.43
2018-12-05T14:10:00.455Z,5.03
2018-12-05T14:12:30.685Z,4.27
2018-12-05T14:14:58.768Z,9.10
2018-12-05T14:17:26.928Z,4.30
2018-12-05T14:19:55.083Z,5.50
2018-12-05T14:22:23.300Z,10.47
2018-12-05T14:24:51.496Z,5.47
2018-12-05T14:27:19.572Z,5.43
2018-12-05T14:29:47.633Z,7.60
2018-12-05T14:32:15.800Z,7.37
2018-12-05T14:34:43.878Z,4.97
2018-12-05T14:37:12.029Z,3.47
2018-12-05T14:39:40.151Z,5.03
2018-12-05T14:42:08.285Z,4.77
2018-12-05T14:44:36.542Z,9.70
2018-12-05T14:47:04.774Z,4.47
2018-12-05T14:49:32.969Z,6.47
2018-12-05T14:52:01.125Z,7.73
2018-12-05T14:54:29.337Z,11.07
2018-12-05T14:56:57.574Z,10.83
2018-12-05T14:59:25.693Z,3.97
2018-12-05T15:01:53.860Z,6.50
2018-12-05T15:04:22.068Z,8.33
2018-12-05T15:06:50.140Z,4.90
2018-12-05T15:09:18.322Z,3.40
2018-12-05T15:11:47.132Z,2.80
2018-12-05T15:14:15.212Z,5.97
2018-12-05T15:16:43.288Z,9.23
2018-12-05T15:19:11.472Z,13.00
2018-12-05T15:21:39.609Z,10.10
2018-12-05T15:24:07.819Z,6.40
2018-12-05T15:26:35.973Z,7.37
2018-12-05T15:29:04.181Z,6.73
2018-12-05T15:31:32.309Z,5.17
2018-12-05T15:34:00.562Z,5.60
2018-12-05T15:36:28.681Z,11.90
2018-12-05T15:38:56.757Z,5.87
2018-12-05T15:41:24.913Z,6.70
2018-12-05T15:43:53.108Z,5.77
2018-12-05T15:46:21.222Z,4.57
2018-12-05T15:48:49.457Z,9.73
2018-12-05T15:51:17.541Z,7.10
2018-12-05T15:53:45.721Z,9.63
2018-12-05T15:56:13.840Z,12.27
2018-12-05T15:58:42.083Z,7.80
2018-12-05T16:01:10.226Z,12.80
2018-12-05T16:03:43.089Z,7.80
2018-12-05T16:06:08.540Z,7.43
2018-12-05T16:08:36.757Z,4.83
2018-12-05T16:11:04.953Z,8.37
2018-12-05T16:13:33.078Z,4.43
2018-12-05T16:16:01.317Z,7.00
2018-12-05T16:18:29.503Z,6.73
2018-12-05T16:20:57.652Z,7.27
2018-12-05T16:23:25.796Z,4.50
2018-12-05T16:25:55.326Z,7.07
2018-12-05T16:28:23.626Z,9.77
2018-12-05T16:30:51.784Z,9.70
2018-12-05T16:33:19.908Z,5.63
2018-12-05T16:35:48.028Z,8.67
2018-12-05T16:38:16.114Z,6.50
2018-12-05T16:40:44.304Z,11.90
2018-12-05T16:43:12.445Z,7.73
2018-12-05T16:45:40.510Z,7.23
2018-12-05T16:48:08.673Z,8.20
2018-12-05T16:50:36.794Z,10.03
2018-12-05T16:53:05.112Z,3.70
2018-12-05T16:55:33.218Z,7.93
2018-12-05T16:58:01.337Z,7.50
2018-12-05T17:00:29.587Z,6.00
2018-12-05T17:02:57.780Z,4.40
2018-12-05T17:05:25.892Z,8.80
2018-12-05T17:07:54.057Z,7.20
2018-12-05T17:10:22.173Z,10.33
2018-12-05T17:12:50.285Z,6.00
2018-12-05T17:15:18.485Z,7.00
2018-12-05T17:17:46.610Z,10.30
2018-12-05T17:20:15.199Z,9.37
2018-12-05T17:22:43.340Z,8.60
2018-12-05T17:28:13.226Z,8.07
2018-12-05T17:30:41.334Z,8.23
2018-12-05T17:33:09.409Z,8.20
2018-12-05T17:35:37.589Z,6.20
2018-12-05T17:38:05.715Z,5.53
2018-12-05T17:40:33.933Z,11.57
2018-12-05T17:43:02.017Z,7.57
2018-12-05T17:45:30.082Z,7.50
2018-12-05T17:47:58.196Z,8.20
2018-12-05T17:50:26.472Z,12.60
2018-12-05T17:52:54.819Z,9.80
2018-12-05T17:55:23.090Z,4.87
2018-12-05T17:57:51.180Z,6.40
2018-12-05T18:00:19.374Z,9.67
2018-12-05T18:02:48.333Z,9.67
2018-12-05T18:05:16.397Z,7.50
2018-12-05T18:07:44.580Z,8.90
2018-12-05T18:10:12.845Z,7.07
2018-12-05T18:12:40.969Z,9.53
2018-12-05T18:15:09.260Z,10.87
2018-12-05T18:17:37.392Z,9.90
2018-12-05T18:20:07.887Z,12.10
2018-12-05T18:22:36.025Z,9.37
2018-12-05T18:25:04.274Z,10.67
2018-12-05T18:27:32.412Z,8.97
2018-12-05T18:30:00.509Z,9.50
2018-12-05T18:32:28.749Z,9.47
2018-12-05T18:34:56.860Z,12.40
2018-12-05T18:37:25.086Z,11.00
2018-12-05T18:39:53.193Z,11.80
2018-12-05T18:42:21.340Z,9.93
2018-12-05T18:45:02.233Z,6.90
2018-12-05T18:47:32.662Z,11.03
2018-12-05T18:50:06.814Z,10.43
2018-12-05T18:52:40.625Z,10.57
2018-12-05T19:01:10.029Z,12.23
2018-12-05T19:03:38.192Z,12.30
2018-12-05T19:06:08.500Z,12.13
2018-12-05T19:08:36.680Z,11.27
2018-12-05T19:11:04.838Z,12.97
2018-12-05T19:13:53.671Z,10.43
2018-12-05T19:16:21.873Z,12.97
2018-12-05T19:18:50.092Z,13.60
2018-12-05T19:21:18.326Z,13.93
2018-12-05T19:23:47.609Z,17.10
2018-12-05T19:26:15.786Z,12.40
2018-12-05T19:28:44.118Z,16.20
2018-12-05T19:31:19.218Z,13.80
2018-12-05T19:33:42.409Z,10.53
2018-12-05T19:36:10.518Z,13.03
2018-12-05T19:38:38.664Z,11.70
2018-12-05T19:41:06.766Z,12.93
2018-12-05T19:43:35.115Z,12.50
2018-12-05T19:46:03.336Z,12.90
2018-12-05T19:48:31.521Z,14.10
2018-12-05T19:50:59.639Z,12.77
2018-12-05T19:53:27.895Z,14.97
2018-12-05T19:55:56.017Z,10.67
2018-12-05T19:58:24.137Z,14.30
2018-12-05T20:01:02.148Z,11.90
2018-12-05T20:03:30.273Z,16.33
2018-12-05T20:05:58.485Z,12.77
2018-12-05T20:08:26.671Z,13.07
2018-12-05T20:10:54.836Z,10.50
2018-12-05T20:13:22.978Z,10.50
2018-12-05T20:15:51.218Z,13.37
2018-12-05T20:18:19.354Z,13.70
2018-12-05T20:20:47.572Z,12.70
2018-12-05T20:23:16.417Z,13.13
2018-12-05T20:25:44.581Z,12.27
2018-12-05T20:28:12.643Z,18.80
2018-12-05T20:30:40.754Z,13.90
2018-12-05T20:33:09.061Z,12.50
2018-12-05T20:35:37.279Z,11.20
2018-12-05T20:38:05.432Z,13.43
2018-12-05T20:40:33.657Z,15.07
2018-12-05T20:43:01.820Z,16.90
2018-12-05T20:45:29.877Z,14.73
2018-12-05T20:47:58.045Z,15.87
2018-12-05T20:50:26.261Z,15.93
2018-12-05T20:52:54.393Z,13.83
2018-12-05T20:55:22.566Z,13.73
2018-12-05T20:57:50.765Z,13.83
2018-12-05T21:00:18.976Z,16.87
2018-12-05T21:02:47.115Z,13.10
2018-12-05T21:05:15.236Z,12.53
2018-12-05T21:07:43.460Z,17.27
2018-12-05T21:10:11.613Z,15.33
2018-12-05T21:12:39.823Z,12.50
2018-12-05T21:15:08.219Z,15.13
2018-12-05T21:17:36.308Z,15.87
2018-12-05T21:20:04.992Z,15.30
2018-12-05T21:22:33.055Z,16.17
2018-12-05T21:25:01.221Z,15.13
2018-12-05T21:27:29.396Z,15.80
2018-12-05T21:29:57.591Z,12.77
2018-12-05T21:32:25.748Z,14.03
2018-12-05T21:34:53.964Z,13.53
2018-12-05T21:37:22.115Z,14.30
2018-12-05T21:39:50.256Z,16.13
2018-12-05T21:42:18.821Z,13.47
2018-12-05T21:44:46.921Z,17.67
2018-12-05T21:47:15.013Z,15.13
2018-12-05T21:49:43.324Z,16.00
2018-12-05T21:52:11.501Z,15.33
2018-12-05T21:54:39.643Z,16.87
2018-12-05T21:57:07.745Z,16.67
2018-12-05T21:59:35.859Z,16.00
